sensor_id;sensor_type;location;lat;lon;timestamp;P1;durP1;ratioP1;P2;durP2;ratioP2
71080;SDS011;58740;50.672;18.690;2023-11-19T00:00:18;36.00;;;20.00;;
71080;SDS011;58740;50.672;18.690;2023-11-19T00:03:11;41.50;;;20.90;;
71080;SDS011;58740;50.672;18.690;2023-11-19T00:05:45;42.30;;;22.20;;
71080;SDS011;58740;50.672;18.690;2023-11-19T00:08:18;41.50;;;20.70;;
71080;SDS011;58740;50.672;18.690;2023-11-19T00:10:51;41.50;;;21.30;;
71080;SDS011;58740;50.672;18.690;2023-11-19T00:13:25;45.70;;;21.60;;
71080;SDS011;58740;50.672;18.690;2023-11-19T00:15:58;41.80;;;19.60;;
71080;SDS011;58740;50.672;18.690;2023-11-19T00:18:34;34.80;;;17.80;;
71080;SDS011;58740;50.672;18.690;2023-11-19T00:21:08;32.00;;;18.60;;
71080;SDS011;58740;50.672;18.690;2023-11-19T00:23:41;44.20;;;20.50;;
71080;SDS011;58740;50.672;18.690;2023-11-19T00:26:15;41.00;;;21.50;;
71080;SDS011;58740;50.672;18.690;2023-11-19T00:28:48;45.70;;;21.80;;
71080;SDS011;58740;50.672;18.690;2023-11-19T00:31:23;39.40;;;21.70;;
71080;SDS011;58740;50.672;18.690;2023-11-19T00:33:58;38.50;;;19.50;;
71080;SDS011;58740;50.672;18.690;2023-11-19T00:36:32;34.70;;;18.20;;
71080;SDS011;58740;50.672;18.690;2023-11-19T00:39:05;32.90;;;16.80;;
71080;SDS011;58740;50.672;18.690;2023-11-19T00:41:39;39.30;;;19.80;;
71080;SDS011;58740;50.672;18.690;2023-11-19T00:44:12;34.50;;;17.50;;
71080;SDS011;58740;50.672;18.690;2023-11-19T00:46:45;36.60;;;18.00;;
71080;SDS011;58740;50.672;18.690;2023-11-19T00:49:19;30.70;;;15.00;;
71080;SDS011;58740;50.672;18.690;2023-11-19T00:51:53;32.80;;;14.60;;
71080;SDS011;58740;50.672;18.690;2023-11-19T00:54:27;32.10;;;16.30;;
71080;SDS011;58740;50.672;18.690;2023-11-19T00:57:00;31.50;;;15.30;;
71080;SDS011;58740;50.672;18.690;2023-11-19T00:59:34;34.50;;;15.40;;
71080;SDS011;58740;50.672;18.690;2023-11-19T01:02:10;28.60;;;15.00;;
71080;SDS011;58740;50.672;18.690;2023-11-19T01:04:45;29.50;;;16.10;;
71080;SDS011;58740;50.672;18.690;2023-11-19T01:07:18;26.50;;;14.90;;
71080;SDS011;58740;50.672;18.690;2023-11-19T01:09:52;30.80;;;15.70;;
71080;SDS011;58740;50.672;18.690;2023-11-19T01:12:26;25.80;;;14.40;;
71080;SDS011;58740;50.672;18.690;2023-11-19T01:15:02;30.40;;;15.00;;
71080;SDS011;58740;50.672;18.690;2023-11-19T01:17:37;27.60;;;14.30;;
71080;SDS011;58740;50.672;18.690;2023-11-19T01:20:17;25.00;;;14.40;;
71080;SDS011;58740;50.672;18.690;2023-11-19T01:22:51;24.80;;;12.80;;
71080;SDS011;58740;50.672;18.690;2023-11-19T01:25:25;30.00;;;13.80;;
71080;SDS011;58740;50.672;18.690;2023-11-19T01:28:00;24.70;;;13.30;;
71080;SDS011;58740;50.672;18.690;2023-11-19T01:30:35;24.70;;;14.30;;
71080;SDS011;58740;50.672;18.690;2023-11-19T01:33:09;22.90;;;13.00;;
71080;SDS011;58740;50.672;18.690;2023-11-19T01:35:42;26.80;;;12.80;;
71080;SDS011;58740;50.672;18.690;2023-11-19T01:38:16;24.70;;;11.00;;
71080;SDS011;58740;50.672;18.690;2023-11-19T01:40:49;21.30;;;10.90;;
71080;SDS011;58740;50.672;18.690;2023-11-19T01:43:37;21.30;;;10.00;;
71080;SDS011;58740;50.672;18.690;2023-11-19T01:46:14;19.40;;;11.20;;
71080;SDS011;58740;50.672;18.690;2023-11-19T01:48:48;19.40;;;10.00;;
71080;SDS011;58740;50.672;18.690;2023-11-19T01:51:22;18.20;;;9.50;;
71080;SDS011;58740;50.672;18.690;2023-11-19T01:53:56;17.80;;;10.10;;
71080;SDS011;58740;50.672;18.690;2023-11-19T01:56:31;21.70;;;10.00;;
71080;SDS011;58740;50.672;18.690;2023-11-19T01:59:05;19.50;;;9.60;;
71080;SDS011;58740;50.672;18.690;2023-11-19T02:01:41;20.70;;;10.20;;
71080;SDS011;58740;50.672;18.690;2023-11-19T02:04:15;21.60;;;10.20;;
71080;SDS011;58740;50.672;18.690;2023-11-19T02:06:49;21.60;;;9.70;;
71080;SDS011;58740;50.672;18.690;2023-11-19T02:09:26;22.70;;;9.30;;
71080;SDS011;58740;50.672;18.690;2023-11-19T02:12:00;21.50;;;9.20;;
71080;SDS011;58740;50.672;18.690;2023-11-19T02:14:35;17.30;;;9.10;;
71080;SDS011;58740;50.672;18.690;2023-11-19T02:17:26;16.70;;;8.20;;
71080;SDS011;58740;50.672;18.690;2023-11-19T02:20:02;19.90;;;10.30;;
71080;SDS011;58740;50.672;18.690;2023-11-19T02:22:37;19.00;;;9.70;;
71080;SDS011;58740;50.672;18.690;2023-11-19T02:25:15;16.10;;;8.10;;
71080;SDS011;58740;50.672;18.690;2023-11-19T02:27:55;16.70;;;8.40;;
71080;SDS011;58740;50.672;18.690;2023-11-19T02:30:30;17.10;;;9.20;;
71080;SDS011;58740;50.672;18.690;2023-11-19T02:33:04;23.50;;;10.30;;
71080;SDS011;58740;50.672;18.690;2023-11-19T02:35:37;19.70;;;10.90;;
71080;SDS011;58740;50.672;18.690;2023-11-19T02:38:11;19.10;;;10.40;;
71080;SDS011;58740;50.672;18.690;2023-11-19T02:40:45;19.80;;;9.00;;
71080;SDS011;58740;50.672;18.690;2023-11-19T02:43:19;19.40;;;7.70;;
71080;SDS011;58740;50.672;18.690;2023-11-19T02:45:53;19.80;;;8.70;;
71080;SDS011;58740;50.672;18.690;2023-11-19T02:48:27;14.80;;;7.50;;
71080;SDS011;58740;50.672;18.690;2023-11-19T02:51:01;16.30;;;8.00;;
71080;SDS011;58740;50.672;18.690;2023-11-19T02:53:35;17.70;;;8.40;;
71080;SDS011;58740;50.672;18.690;2023-11-19T02:56:10;18.80;;;10.40;;
71080;SDS011;58740;50.672;18.690;2023-11-19T02:58:50;20.00;;;9.50;;
71080;SDS011;58740;50.672;18.690;2023-11-19T03:01:24;17.10;;;8.30;;
71080;SDS011;58740;50.672;18.690;2023-11-19T03:04:02;17.70;;;9.30;;
71080;SDS011;58740;50.672;18.690;2023-11-19T03:06:36;20.90;;;10.50;;
71080;SDS011;58740;50.672;18.690;2023-11-19T03:09:09;22.40;;;10.60;;
71080;SDS011;58740;50.672;18.690;2023-11-19T03:11:43;21.30;;;10.40;;
71080;SDS011;58740;50.672;18.690;2023-11-19T03:14:16;24.90;;;12.00;;
71080;SDS011;58740;50.672;18.690;2023-11-19T03:16:49;19.20;;;9.50;;
71080;SDS011;58740;50.672;18.690;2023-11-19T03:19:23;22.00;;;10.40;;
71080;SDS011;58740;50.672;18.690;2023-11-19T03:21:57;20.10;;;10.40;;
71080;SDS011;58740;50.672;18.690;2023-11-19T03:24:31;21.20;;;10.00;;
71080;SDS011;58740;50.672;18.690;2023-11-19T03:27:05;20.50;;;8.90;;
71080;SDS011;58740;50.672;18.690;2023-11-19T03:29:38;22.30;;;9.60;;
71080;SDS011;58740;50.672;18.690;2023-11-19T03:32:11;22.90;;;11.30;;
71080;SDS011;58740;50.672;18.690;2023-11-19T03:34:45;27.20;;;11.10;;
71080;SDS011;58740;50.672;18.690;2023-11-19T03:37:19;22.40;;;10.70;;
71080;SDS011;58740;50.672;18.690;2023-11-19T03:39:52;24.90;;;12.00;;
71080;SDS011;58740;50.672;18.690;2023-11-19T03:42:33;27.50;;;12.70;;
71080;SDS011;58740;50.672;18.690;2023-11-19T03:45:07;27.90;;;15.40;;
71080;SDS011;58740;50.672;18.690;2023-11-19T03:47:41;34.60;;;17.20;;
71080;SDS011;58740;50.672;18.690;2023-11-19T03:50:15;28.80;;;14.70;;
71080;SDS011;58740;50.672;18.690;2023-11-19T03:52:50;30.80;;;14.20;;
71080;SDS011;58740;50.672;18.690;2023-11-19T03:55:24;28.80;;;12.60;;
71080;SDS011;58740;50.672;18.690;2023-11-19T03:57:57;29.50;;;14.40;;
71080;SDS011;58740;50.672;18.690;2023-11-19T04:00:31;29.10;;;13.40;;
71080;SDS011;58740;50.672;18.690;2023-11-19T04:03:05;33.20;;;14.70;;
71080;SDS011;58740;50.672;18.690;2023-11-19T04:05:38;25.30;;;13.00;;
71080;SDS011;58740;50.672;18.690;2023-11-19T04:08:11;28.50;;;14.00;;
71080;SDS011;58740;50.672;18.690;2023-11-19T04:10:45;31.10;;;14.20;;
71080;SDS011;58740;50.672;18.690;2023-11-19T04:13:18;27.00;;;13.20;;
71080;SDS011;58740;50.672;18.690;2023-11-19T04:15:52;31.40;;;15.00;;
71080;SDS011;58740;50.672;18.690;2023-11-19T04:18:26;32.10;;;13.60;;
71080;SDS011;58740;50.672;18.690;2023-11-19T04:20:59;33.30;;;14.60;;
71080;SDS011;58740;50.672;18.690;2023-11-19T04:23:32;29.40;;;14.80;;
71080;SDS011;58740;50.672;18.690;2023-11-19T04:26:06;27.40;;;14.20;;
71080;SDS011;58740;50.672;18.690;2023-11-19T04:28:41;29.60;;;14.00;;
71080;SDS011;58740;50.672;18.690;2023-11-19T04:31:14;32.50;;;15.60;;
71080;SDS011;58740;50.672;18.690;2023-11-19T04:33:48;27.90;;;14.60;;
71080;SDS011;58740;50.672;18.690;2023-11-19T04:36:25;30.50;;;15.50;;
71080;SDS011;58740;50.672;18.690;2023-11-19T04:39:00;29.20;;;14.90;;
71080;SDS011;58740;50.672;18.690;2023-11-19T04:41:36;38.50;;;17.20;;
71080;SDS011;58740;50.672;18.690;2023-11-19T04:44:16;34.70;;;17.50;;
71080;SDS011;58740;50.672;18.690;2023-11-19T04:46:50;37.70;;;18.10;;
71080;SDS011;58740;50.672;18.690;2023-11-19T04:49:23;35.20;;;17.40;;
71080;SDS011;58740;50.672;18.690;2023-11-19T04:51:58;39.90;;;17.40;;
71080;SDS011;58740;50.672;18.690;2023-11-19T04:54:31;30.10;;;15.20;;
71080;SDS011;58740;50.672;18.690;2023-11-19T04:57:05;31.80;;;16.50;;
71080;SDS011;58740;50.672;18.690;2023-11-19T04:59:40;36.10;;;15.70;;
71080;SDS011;58740;50.672;18.690;2023-11-19T05:02:13;34.60;;;16.60;;
71080;SDS011;58740;50.672;18.690;2023-11-19T05:04:47;35.00;;;15.60;;
71080;SDS011;58740;50.672;18.690;2023-11-19T05:07:20;35.70;;;16.50;;
71080;SDS011;58740;50.672;18.690;2023-11-19T05:09:53;36.00;;;16.80;;
71080;SDS011;58740;50.672;18.690;2023-11-19T05:12:27;30.10;;;15.00;;
71080;SDS011;58740;50.672;18.690;2023-11-19T05:15:00;33.00;;;16.50;;
71080;SDS011;58740;50.672;18.690;2023-11-19T05:17:34;31.20;;;15.00;;
71080;SDS011;58740;50.672;18.690;2023-11-19T05:20:09;29.80;;;15.40;;
71080;SDS011;58740;50.672;18.690;2023-11-19T05:22:44;28.30;;;13.00;;
71080;SDS011;58740;50.672;18.690;2023-11-19T05:25:18;30.10;;;14.10;;
71080;SDS011;58740;50.672;18.690;2023-11-19T05:27:51;37.20;;;17.30;;
71080;SDS011;58740;50.672;18.690;2023-11-19T05:30:25;36.80;;;17.60;;
71080;SDS011;58740;50.672;18.690;2023-11-19T05:32:58;31.30;;;15.00;;
71080;SDS011;58740;50.672;18.690;2023-11-19T05:35:32;29.30;;;13.50;;
71080;SDS011;58740;50.672;18.690;2023-11-19T05:38:05;33.50;;;13.50;;
71080;SDS011;58740;50.672;18.690;2023-11-19T05:40:40;37.10;;;15.30;;
71080;SDS011;58740;50.672;18.690;2023-11-19T05:43:14;29.80;;;13.60;;
71080;SDS011;58740;50.672;18.690;2023-11-19T05:45:48;29.20;;;14.70;;
71080;SDS011;58740;50.672;18.690;2023-11-19T05:48:21;28.30;;;13.90;;
71080;SDS011;58740;50.672;18.690;2023-11-19T05:50:56;30.10;;;13.90;;
71080;SDS011;58740;50.672;18.690;2023-11-19T05:53:29;35.90;;;16.20;;
71080;SDS011;58740;50.672;18.690;2023-11-19T05:56:03;34.50;;;15.90;;
71080;SDS011;58740;50.672;18.690;2023-11-19T05:58:40;37.40;;;16.80;;
71080;SDS011;58740;50.672;18.690;2023-11-19T06:01:15;37.10;;;17.20;;
71080;SDS011;58740;50.672;18.690;2023-11-19T06:03:49;32.20;;;15.40;;
71080;SDS011;58740;50.672;18.690;2023-11-19T06:06:22;40.20;;;16.30;;
71080;SDS011;58740;50.672;18.690;2023-11-19T06:08:55;35.30;;;16.40;;
71080;SDS011;58740;50.672;18.690;2023-11-19T06:11:41;30.40;;;14.20;;
71080;SDS011;58740;50.672;18.690;2023-11-19T06:14:15;30.00;;;15.20;;
71080;SDS011;58740;50.672;18.690;2023-11-19T06:16:48;40.60;;;16.60;;
71080;SDS011;58740;50.672;18.690;2023-11-19T06:19:22;34.30;;;16.40;;
71080;SDS011;58740;50.672;18.690;2023-11-19T06:22:00;35.70;;;17.30;;
71080;SDS011;58740;50.672;18.690;2023-11-19T06:24:33;33.10;;;14.60;;
71080;SDS011;58740;50.672;18.690;2023-11-19T06:27:10;34.80;;;16.60;;
71080;SDS011;58740;50.672;18.690;2023-11-19T06:29:44;35.00;;;16.50;;
71080;SDS011;58740;50.672;18.690;2023-11-19T06:32:17;38.20;;;17.50;;
71080;SDS011;58740;50.672;18.690;2023-11-19T06:34:51;34.80;;;15.30;;
71080;SDS011;58740;50.672;18.690;2023-11-19T06:37:24;30.00;;;14.90;;
71080;SDS011;58740;50.672;18.690;2023-11-19T06:39:58;33.30;;;15.80;;
71080;SDS011;58740;50.672;18.690;2023-11-19T06:42:32;31.00;;;13.70;;
71080;SDS011;58740;50.672;18.690;2023-11-19T06:45:06;32.80;;;14.70;;
71080;SDS011;58740;50.672;18.690;2023-11-19T06:47:40;31.90;;;14.40;;
71080;SDS011;58740;50.672;18.690;2023-11-19T06:50:13;28.40;;;13.60;;
71080;SDS011;58740;50.672;18.690;2023-11-19T06:52:47;34.70;;;15.90;;
71080;SDS011;58740;50.672;18.690;2023-11-19T06:55:21;31.30;;;15.80;;
71080;SDS011;58740;50.672;18.690;2023-11-19T06:57:54;28.30;;;14.70;;
71080;SDS011;58740;50.672;18.690;2023-11-19T07:00:27;34.50;;;15.80;;
71080;SDS011;58740;50.672;18.690;2023-11-19T07:03:03;31.00;;;15.20;;
71080;SDS011;58740;50.672;18.690;2023-11-19T07:05:39;32.80;;;15.80;;
71080;SDS011;58740;50.672;18.690;2023-11-19T07:08:12;33.50;;;15.20;;
71080;SDS011;58740;50.672;18.690;2023-11-19T07:10:46;29.70;;;14.30;;
71080;SDS011;58740;50.672;18.690;2023-11-19T07:13:19;34.80;;;16.10;;
71080;SDS011;58740;50.672;18.690;2023-11-19T07:15:52;39.10;;;18.50;;
71080;SDS011;58740;50.672;18.690;2023-11-19T07:18:27;33.50;;;14.40;;
71080;SDS011;58740;50.672;18.690;2023-11-19T07:21:02;29.90;;;14.30;;
71080;SDS011;58740;50.672;18.690;2023-11-19T07:23:35;32.80;;;17.00;;
71080;SDS011;58740;50.672;18.690;2023-11-19T07:26:09;33.70;;;15.00;;
71080;SDS011;58740;50.672;18.690;2023-11-19T07:28:43;40.30;;;18.80;;
71080;SDS011;58740;50.672;18.690;2023-11-19T07:31:16;40.00;;;18.00;;
71080;SDS011;58740;50.672;18.690;2023-11-19T07:33:50;38.60;;;17.70;;
71080;SDS011;58740;50.672;18.690;2023-11-19T07:36:24;34.00;;;14.70;;
71080;SDS011;58740;50.672;18.690;2023-11-19T07:38:58;32.70;;;15.10;;
71080;SDS011;58740;50.672;18.690;2023-11-19T07:41:31;32.70;;;16.50;;
71080;SDS011;58740;50.672;18.690;2023-11-19T07:44:05;32.40;;;14.70;;
71080;SDS011;58740;50.672;18.690;2023-11-19T07:46:39;34.10;;;16.50;;
71080;SDS011;58740;50.672;18.690;2023-11-19T07:49:13;33.70;;;16.40;;
71080;SDS011;58740;50.672;18.690;2023-11-19T07:51:46;36.50;;;16.70;;
71080;SDS011;58740;50.672;18.690;2023-11-19T07:54:19;38.60;;;16.90;;
71080;SDS011;58740;50.672;18.690;2023-11-19T07:56:53;39.20;;;15.10;;
71080;SDS011;58740;50.672;18.690;2023-11-19T07:59:26;39.10;;;16.70;;
71080;SDS011;58740;50.672;18.690;2023-11-19T08:02:00;34.90;;;16.20;;
71080;SDS011;58740;50.672;18.690;2023-11-19T08:04:34;30.50;;;14.80;;
71080;SDS011;58740;50.672;18.690;2023-11-19T08:07:10;35.20;;;16.50;;
71080;SDS011;58740;50.672;18.690;2023-11-19T08:09:44;38.50;;;17.20;;
71080;SDS011;58740;50.672;18.690;2023-11-19T08:12:17;34.50;;;16.00;;
71080;SDS011;58740;50.672;18.690;2023-11-19T08:14:51;35.40;;;16.60;;
71080;SDS011;58740;50.672;18.690;2023-11-19T08:17:24;36.70;;;17.70;;
71080;SDS011;58740;50.672;18.690;2023-11-19T08:19:57;32.20;;;16.00;;
71080;SDS011;58740;50.672;18.690;2023-11-19T08:22:31;39.90;;;17.50;;
71080;SDS011;58740;50.672;18.690;2023-11-19T08:25:06;47.30;;;21.80;;
71080;SDS011;58740;50.672;18.690;2023-11-19T08:27:40;36.80;;;17.60;;
71080;SDS011;58740;50.672;18.690;2023-11-19T08:30:14;33.40;;;15.30;;
71080;SDS011;58740;50.672;18.690;2023-11-19T08:32:48;39.00;;;19.70;;
71080;SDS011;58740;50.672;18.690;2023-11-19T08:35:21;41.60;;;18.90;;
71080;SDS011;58740;50.672;18.690;2023-11-19T08:37:55;43.60;;;19.50;;
71080;SDS011;58740;50.672;18.690;2023-11-19T08:40:30;32.90;;;15.80;;
71080;SDS011;58740;50.672;18.690;2023-11-19T08:43:03;36.80;;;17.10;;
71080;SDS011;58740;50.672;18.690;2023-11-19T08:45:37;29.60;;;15.80;;
71080;SDS011;58740;50.672;18.690;2023-11-19T08:48:10;32.30;;;17.20;;
71080;SDS011;58740;50.672;18.690;2023-11-19T08:50:44;36.30;;;15.80;;
71080;SDS011;58740;50.672;18.690;2023-11-19T08:53:17;30.10;;;14.60;;
71080;SDS011;58740;50.672;18.690;2023-11-19T08:55:51;33.70;;;15.40;;
71080;SDS011;58740;50.672;18.690;2023-11-19T08:58:24;32.10;;;14.20;;
71080;SDS011;58740;50.672;18.690;2023-11-19T09:00:58;34.20;;;15.40;;
71080;SDS011;58740;50.672;18.690;2023-11-19T09:03:33;28.80;;;13.80;;
71080;SDS011;58740;50.672;18.690;2023-11-19T09:06:08;30.50;;;14.80;;
71080;SDS011;58740;50.672;18.690;2023-11-19T09:08:41;24.70;;;11.90;;
71080;SDS011;58740;50.672;18.690;2023-11-19T09:11:15;27.50;;;12.50;;
71080;SDS011;58740;50.672;18.690;2023-11-19T09:13:49;25.90;;;12.30;;
71080;SDS011;58740;50.672;18.690;2023-11-19T09:16:23;27.40;;;12.40;;
71080;SDS011;58740;50.672;18.690;2023-11-19T09:18:56;29.30;;;12.60;;
71080;SDS011;58740;50.672;18.690;2023-11-19T09:21:31;27.40;;;13.10;;
71080;SDS011;58740;50.672;18.690;2023-11-19T09:24:08;25.10;;;11.80;;
71080;SDS011;58740;50.672;18.690;2023-11-19T09:26:45;24.30;;;12.80;;
71080;SDS011;58740;50.672;18.690;2023-11-19T09:29:19;24.20;;;12.30;;
71080;SDS011;58740;50.672;18.690;2023-11-19T09:31:52;28.00;;;11.30;;
71080;SDS011;58740;50.672;18.690;2023-11-19T09:34:26;26.50;;;12.10;;
71080;SDS011;58740;50.672;18.690;2023-11-19T09:36:59;23.70;;;11.60;;
71080;SDS011;58740;50.672;18.690;2023-11-19T09:39:33;23.50;;;10.80;;
71080;SDS011;58740;50.672;18.690;2023-11-19T09:42:06;23.10;;;10.90;;
71080;SDS011;58740;50.672;18.690;2023-11-19T09:44:44;22.40;;;11.40;;
71080;SDS011;58740;50.672;18.690;2023-11-19T09:47:20;24.10;;;10.60;;
71080;SDS011;58740;50.672;18.690;2023-11-19T09:49:54;25.40;;;11.60;;
71080;SDS011;58740;50.672;18.690;2023-11-19T09:52:29;22.20;;;9.50;;
71080;SDS011;58740;50.672;18.690;2023-11-19T09:55:02;22.40;;;10.80;;
71080;SDS011;58740;50.672;18.690;2023-11-19T09:57:36;23.10;;;10.70;;
71080;SDS011;58740;50.672;18.690;2023-11-19T10:00:14;20.30;;;9.80;;
71080;SDS011;58740;50.672;18.690;2023-11-19T10:02:49;24.20;;;12.00;;
71080;SDS011;58740;50.672;18.690;2023-11-19T10:05:25;24.40;;;11.70;;
71080;SDS011;58740;50.672;18.690;2023-11-19T10:07:58;25.70;;;12.10;;
71080;SDS011;58740;50.672;18.690;2023-11-19T10:10:33;23.10;;;11.50;;
71080;SDS011;58740;50.672;18.690;2023-11-19T10:13:07;29.30;;;12.90;;
71080;SDS011;58740;50.672;18.690;2023-11-19T10:15:40;30.50;;;12.40;;
71080;SDS011;58740;50.672;18.690;2023-11-19T10:18:16;28.70;;;13.10;;
71080;SDS011;58740;50.672;18.690;2023-11-19T10:20:50;23.80;;;12.50;;
71080;SDS011;58740;50.672;18.690;2023-11-19T10:23:25;30.30;;;13.40;;
71080;SDS011;58740;50.672;18.690;2023-11-19T10:26:04;25.70;;;10.90;;
71080;SDS011;58740;50.672;18.690;2023-11-19T10:28:41;24.10;;;10.70;;
71080;SDS011;58740;50.672;18.690;2023-11-19T10:31:17;25.50;;;12.30;;
71080;SDS011;58740;50.672;18.690;2023-11-19T10:33:55;25.90;;;12.40;;
71080;SDS011;58740;50.672;18.690;2023-11-19T10:36:39;26.70;;;12.20;;
71080;SDS011;58740;50.672;18.690;2023-11-19T10:39:14;29.40;;;13.70;;
71080;SDS011;58740;50.672;18.690;2023-11-19T10:41:48;26.60;;;12.90;;
71080;SDS011;58740;50.672;18.690;2023-11-19T10:44:35;24.10;;;11.30;;
71080;SDS011;58740;50.672;18.690;2023-11-19T10:47:11;25.90;;;12.70;;
71080;SDS011;58740;50.672;18.690;2023-11-19T10:49:45;28.70;;;12.30;;
71080;SDS011;58740;50.672;18.690;2023-11-19T10:52:20;30.20;;;13.10;;
71080;SDS011;58740;50.672;18.690;2023-11-19T10:54:54;26.60;;;13.90;;
71080;SDS011;58740;50.672;18.690;2023-11-19T10:57:38;26.80;;;12.80;;
71080;SDS011;58740;50.672;18.690;2023-11-19T11:00:17;32.30;;;14.40;;
71080;SDS011;58740;50.672;18.690;2023-11-19T11:02:56;25.20;;;11.60;;
71080;SDS011;58740;50.672;18.690;2023-11-19T11:05:33;30.30;;;14.80;;
71080;SDS011;58740;50.672;18.690;2023-11-19T11:08:09;26.80;;;12.50;;
71080;SDS011;58740;50.672;18.690;2023-11-19T11:10:44;21.80;;;11.70;;
71080;SDS011;58740;50.672;18.690;2023-11-19T11:13:25;24.70;;;11.30;;
71080;SDS011;58740;50.672;18.690;2023-11-19T11:16:00;24.50;;;12.40;;
71080;SDS011;58740;50.672;18.690;2023-11-19T11:18:35;25.40;;;11.50;;
71080;SDS011;58740;50.672;18.690;2023-11-19T11:21:11;24.10;;;11.90;;
71080;SDS011;58740;50.672;18.690;2023-11-19T11:24:19;23.70;;;11.60;;
71080;SDS011;58740;50.672;18.690;2023-11-19T11:27:24;24.80;;;10.60;;
71080;SDS011;58740;50.672;18.690;2023-11-19T11:30:23;20.10;;;9.60;;
71080;SDS011;58740;50.672;18.690;2023-11-19T11:33:15;19.70;;;9.70;;
71080;SDS011;58740;50.672;18.690;2023-11-19T11:36:06;22.40;;;10.70;;
71080;SDS011;58740;50.672;18.690;2023-11-19T11:38:48;21.80;;;9.90;;
71080;SDS011;58740;50.672;18.690;2023-11-19T11:41:24;20.60;;;10.30;;
71080;SDS011;58740;50.672;18.690;2023-11-19T11:44:00;18.70;;;9.30;;
71080;SDS011;58740;50.672;18.690;2023-11-19T11:46:56;22.70;;;10.10;;
71080;SDS011;58740;50.672;18.690;2023-11-19T11:49:31;15.80;;;8.00;;
71080;SDS011;58740;50.672;18.690;2023-11-19T11:52:05;16.40;;;8.30;;
71080;SDS011;58740;50.672;18.690;2023-11-19T11:54:45;18.70;;;8.80;;
71080;SDS011;58740;50.672;18.690;2023-11-19T11:57:19;18.30;;;9.00;;
71080;SDS011;58740;50.672;18.690;2023-11-19T11:59:53;18.60;;;8.60;;
71080;SDS011;58740;50.672;18.690;2023-11-19T12:02:27;17.10;;;7.60;;
71080;SDS011;58740;50.672;18.690;2023-11-19T12:05:01;15.20;;;7.80;;
71080;SDS011;58740;50.672;18.690;2023-11-19T12:07:36;16.10;;;7.40;;
71080;SDS011;58740;50.672;18.690;2023-11-19T12:10:12;22.80;;;10.90;;
71080;SDS011;58740;50.672;18.690;2023-11-19T12:12:47;16.80;;;8.20;;
71080;SDS011;58740;50.672;18.690;2023-11-19T12:15:20;17.40;;;7.70;;
71080;SDS011;58740;50.672;18.690;2023-11-19T12:17:56;18.20;;;7.50;;
71080;SDS011;58740;50.672;18.690;2023-11-19T12:20:29;18.00;;;9.20;;
71080;SDS011;58740;50.672;18.690;2023-11-19T12:23:08;19.80;;;8.40;;
71080;SDS011;58740;50.672;18.690;2023-11-19T12:25:41;18.80;;;9.30;;
71080;SDS011;58740;50.672;18.690;2023-11-19T12:28:16;19.50;;;8.50;;
71080;SDS011;58740;50.672;18.690;2023-11-19T12:30:50;15.30;;;8.60;;
71080;SDS011;58740;50.672;18.690;2023-11-19T12:33:24;17.70;;;9.00;;
71080;SDS011;58740;50.672;18.690;2023-11-19T12:35:57;20.20;;;9.50;;
71080;SDS011;58740;50.672;18.690;2023-11-19T12:38:37;18.40;;;9.10;;
71080;SDS011;58740;50.672;18.690;2023-11-19T12:41:11;16.80;;;8.30;;
71080;SDS011;58740;50.672;18.690;2023-11-19T12:43:48;18.20;;;8.10;;
71080;SDS011;58740;50.672;18.690;2023-11-19T12:46:23;17.90;;;8.60;;
71080;SDS011;58740;50.672;18.690;2023-11-19T12:48:57;15.30;;;8.30;;
71080;SDS011;58740;50.672;18.690;2023-11-19T12:51:33;24.20;;;10.20;;
71080;SDS011;58740;50.672;18.690;2023-11-19T12:54:07;22.60;;;10.40;;
71080;SDS011;58740;50.672;18.690;2023-11-19T12:56:51;25.30;;;10.70;;
71080;SDS011;58740;50.672;18.690;2023-11-19T12:59:25;20.20;;;10.60;;
71080;SDS011;58740;50.672;18.690;2023-11-19T13:01:59;22.30;;;10.90;;
71080;SDS011;58740;50.672;18.690;2023-11-19T13:04:36;20.20;;;9.70;;
71080;SDS011;58740;50.672;18.690;2023-11-19T13:07:09;19.70;;;9.60;;
71080;SDS011;58740;50.672;18.690;2023-11-19T13:09:43;22.20;;;10.40;;
71080;SDS011;58740;50.672;18.690;2023-11-19T13:12:17;20.30;;;9.30;;
71080;SDS011;58740;50.672;18.690;2023-11-19T13:14:50;22.00;;;10.50;;
71080;SDS011;58740;50.672;18.690;2023-11-19T13:17:24;24.50;;;11.60;;
71080;SDS011;58740;50.672;18.690;2023-11-19T13:19:58;23.40;;;11.60;;
71080;SDS011;58740;50.672;18.690;2023-11-19T13:22:34;22.20;;;10.40;;
71080;SDS011;58740;50.672;18.690;2023-11-19T13:25:08;24.40;;;11.60;;
71080;SDS011;58740;50.672;18.690;2023-11-19T13:27:42;21.70;;;10.20;;
71080;SDS011;58740;50.672;18.690;2023-11-19T13:30:19;25.70;;;10.80;;
71080;SDS011;58740;50.672;18.690;2023-11-19T13:32:56;23.70;;;11.90;;
71080;SDS011;58740;50.672;18.690;2023-11-19T13:35:31;26.30;;;11.60;;
71080;SDS011;58740;50.672;18.690;2023-11-19T13:38:05;30.20;;;13.60;;
71080;SDS011;58740;50.672;18.690;2023-11-19T13:40:39;22.30;;;11.70;;
71080;SDS011;58740;50.672;18.690;2023-11-19T13:43:12;24.70;;;12.10;;
71080;SDS011;58740;50.672;18.690;2023-11-19T13:45:46;31.20;;;14.70;;
71080;SDS011;58740;50.672;18.690;2023-11-19T13:48:19;31.40;;;15.30;;
71080;SDS011;58740;50.672;18.690;2023-11-19T13:50:53;26.40;;;13.50;;
71080;SDS011;58740;50.672;18.690;2023-11-19T13:53:27;28.60;;;13.50;;
71080;SDS011;58740;50.672;18.690;2023-11-19T13:56:00;26.90;;;13.40;;
71080;SDS011;58740;50.672;18.690;2023-11-19T13:58:34;24.50;;;11.60;;
71080;SDS011;58740;50.672;18.690;2023-11-19T14:01:07;24.40;;;12.30;;
71080;SDS011;58740;50.672;18.690;2023-11-19T14:03:43;25.10;;;12.10;;
71080;SDS011;58740;50.672;18.690;2023-11-19T14:06:17;20.90;;;10.70;;
71080;SDS011;58740;50.672;18.690;2023-11-19T14:08:51;20.30;;;10.50;;
71080;SDS011;58740;50.672;18.690;2023-11-19T14:11:24;21.50;;;9.90;;
71080;SDS011;58740;50.672;18.690;2023-11-19T14:13:58;23.60;;;10.40;;
71080;SDS011;58740;50.672;18.690;2023-11-19T14:16:31;25.10;;;11.70;;
71080;SDS011;58740;50.672;18.690;2023-11-19T14:19:05;19.70;;;10.40;;
71080;SDS011;58740;50.672;18.690;2023-11-19T14:21:39;19.80;;;9.70;;
71080;SDS011;58740;50.672;18.690;2023-11-19T14:24:12;22.80;;;11.00;;
71080;SDS011;58740;50.672;18.690;2023-11-19T14:26:48;21.80;;;10.80;;
71080;SDS011;58740;50.672;18.690;2023-11-19T14:29:22;22.10;;;9.60;;
71080;SDS011;58740;50.672;18.690;2023-11-19T14:31:56;24.30;;;10.50;;
71080;SDS011;58740;50.672;18.690;2023-11-19T14:34:30;21.10;;;10.20;;
71080;SDS011;58740;50.672;18.690;2023-11-19T14:37:04;19.60;;;9.60;;
71080;SDS011;58740;50.672;18.690;2023-11-19T14:39:37;24.20;;;10.80;;
71080;SDS011;58740;50.672;18.690;2023-11-19T14:42:11;20.50;;;10.30;;
71080;SDS011;58740;50.672;18.690;2023-11-19T14:44:45;22.50;;;10.70;;
71080;SDS011;58740;50.672;18.690;2023-11-19T14:47:18;22.90;;;10.30;;
71080;SDS011;58740;50.672;18.690;2023-11-19T14:49:51;24.60;;;12.20;;
71080;SDS011;58740;50.672;18.690;2023-11-19T14:52:25;26.10;;;11.20;;
71080;SDS011;58740;50.672;18.690;2023-11-19T14:54:58;25.20;;;10.50;;